Time;durP1;ratioP1;P1;durP2;ratioP2;P2;SDS_P1;SDS_P2;PMS_P1;PMS_P2;Temp;Humidity;BMP_temperature;BMP_pressure;BME280_temperature;BME280_humidity;BME280_pressure;Samples;Min_cycle;Max_cycle;Signal;HPM_P1;HPM_P2
2022/08/06 00:00:01;;;;;;;21.30;17.50;;;;;;;19.08;94.35;100748.11;1678027;84;21084;-92
2022/08/06 00:02:29;;;;;;;19.75;17.82;;;;;;;19.04;94.32;100743.55;1677510;84;20997;-93
2022/08/06 00:04:57;;;;;;;22.67;20.37;;;;;;;19.02;94.36;100744.19;1671852;85;20950;-93
2022/08/06 00:07:24;;;;;;;24.87;20.05;;;;;;;19.00;94.30;100741.66;1671601;84;20983;-93
2022/08/06 00:09:51;;;;;;;21.60;19.48;;;;;;;18.98;94.25;100744.12;1675849;84;21013;-93
2022/08/06 00:12:18;;;;;;;21.60;18.77;;;;;;;18.96;94.28;100746.08;1671204;84;21767;-93
2022/08/06 00:14:44;;;;;;;20.68;18.57;;;;;;;18.94;94.33;100746.25;1671021;84;20903;-94
2022/08/06 00:17:10;;;;;;;19.73;16.48;;;;;;;18.93;94.42;100741.89;1670766;86;20954;-93
2022/08/06 00:19:37;;;;;;;19.15;17.12;;;;;;;18.92;94.49;100744.22;1671054;86;20906;-92
2022/08/06 00:22:03;;;;;;;17.37;15.78;;;;;;;18.92;94.57;100738.05;1671018;84;20890;-94
2022/08/06 00:24:30;;;;;;;18.67;16.52;;;;;;;18.92;94.70;100746.02;1675692;84;21135;-93
2022/08/06 00:26:56;;;;;;;18.87;16.97;;;;;;;18.91;94.82;100746.52;1670733;84;20942;-93
2022/08/06 00:29:23;;;;;;;18.75;16.73;;;;;;;18.92;94.94;100740.70;1670817;86;20883;-92
2022/08/06 00:31:50;;;;;;;18.48;16.77;;;;;;;18.93;95.03;100745.05;1670906;84;20930;-93
2022/08/06 00:34:16;;;;;;;19.00;16.97;;;;;;;18.93;95.20;100747.22;1670958;86;21058;-94
2022/08/06 00:36:42;;;;;;;20.25;18.35;;;;;;;18.95;95.32;100745.25;1671004;86;21078;-94
2022/08/06 00:39:09;;;;;;;19.20;17.50;;;;;;;18.97;95.57;100740.63;1670939;84;20851;-93
2022/08/06 00:41:36;;;;;;;18.67;16.97;;;;;;;18.99;95.80;100748.47;1671154;86;21459;-93
2022/08/06 00:44:03;;;;;;;19.12;17.42;;;;;;;19.00;95.90;100752.30;1621529;86;21029;-92
2022/08/06 00:46:29;;;;;;;20.00;16.97;;;;;;;19.02;95.87;100747.67;1672046;84;21365;-93
2022/08/06 00:48:58;;;;;;;20.35;18.23;;;;;;;19.06;95.81;100749.56;1670983;84;20879;-93
2022/08/06 00:51:24;;;;;;;18.23;16.48;;;;;;;19.08;95.83;100753.42;1670924;84;20943;-93
2022/08/06 00:53:51;;;;;;;18.15;16.35;;;;;;;19.10;95.84;100748.30;1671206;84;20954;-92
2022/08/06 00:56:19;;;;;;;18.95;17.17;;;;;;;19.13;95.74;100748.50;1676221;84;21062;-93
2022/08/06 00:58:45;;;;;;;15.98;14.58;;;;;;;19.14;95.70;100742.19;1671069;86;20930;-93
2022/08/06 01:01:12;;;;;;;18.15;16.30;;;;;;;19.15;95.91;100741.22;1671513;84;21272;-94
2022/08/06 01:03:38;;;;;;;17.55;14.40;;;;;;;19.17;95.87;100740.59;1672934;84;20927;-94
2022/08/06 01:06:05;;;;;;;19.67;15.90;;;;;;;19.18;95.89;100742.25;1672841;84;21357;-93
2022/08/06 01:08:32;;;;;;;17.82;16.05;;;;;;;19.19;95.92;100741.28;1672763;84;20948;-94
2022/08/06 01:10:58;;;;;;;16.30;14.68;;;;;;;19.20;95.62;100746.93;1672656;84;20879;-93
2022/08/06 01:13:25;;;;;;;16.82;15.05;;;;;;;19.20;95.31;100746.93;1672692;84;21129;-94
2022/08/06 01:16:10;;;;;;;16.95;15.35;;;;;;;19.20;94.94;100746.93;1672383;84;21001;-94
2022/08/06 01:18:42;;;;;;;16.10;14.60;;;;;;;19.17;94.59;100748.56;1645832;84;20910;-93
2022/08/06 01:21:34;;;;;;;16.00;13.88;;;;;;;19.14;94.29;100753.68;1646460;84;20953;-93
2022/08/06 01:24:24;;;;;;;14.47;13.03;;;;;;;19.11;94.19;100749.13;1672689;84;20974;-94
2022/08/06 01:27:17;;;;;;;14.68;13.35;;;;;;;19.09;94.26;100744.45;1672588;84;21327;-94
2022/08/06 01:29:48;;;;;;;15.00;13.63;;;;;;;19.06;94.36;100750.89;1663821;84;20995;-93
2022/08/06 01:32:17;;;;;;;13.98;12.65;;;;;;;19.01;94.37;100743.86;1672528;84;20918;-93
2022/08/06 01:34:56;;;;;;;15.53;14.03;;;;;;;18.99;94.62;100742.66;1672614;84;20863;-94
2022/08/06 01:37:27;;;;;;;16.27;14.68;;;;;;;18.97;94.79;100740.63;1672510;84;20985;-93
2022/08/06 01:39:57;;;;;;;15.88;14.07;;;;;;;18.95;95.02;100734.63;1672544;84;21168;-92
2022/08/06 01:42:24;;;;;;;16.40;14.87;;;;;;;18.93;95.01;100736.58;1672453;84;20955;-93
2022/08/06 01:44:50;;;;;;;15.43;14.00;;;;;;;18.92;95.02;100736.25;1648419;84;20907;-92
2022/08/06 01:47:18;;;;;;;15.00;13.70;;;;;;;18.91;95.11;100735.05;1645712;85;20907;-93
2022/08/06 01:49:48;;;;;;;17.62;15.72;;;;;;;18.88;95.25;100731.36;1677404;84;21018;-93
2022/08/06 01:52:15;;;;;;;17.02;15.53;;;;;;;18.87;95.33;100729.17;1672532;84;21240;-93
2022/08/06 01:54:45;;;;;;;16.30;13.93;;;;;;;18.86;95.55;100722.20;1623946;84;20849;-92
2022/08/06 01:57:12;;;;;;;16.02;14.35;;;;;;;18.84;95.62;100728.14;1672381;84;21010;-93
2022/08/06 01:59:43;;;;;;;16.73;15.30;;;;;;;18.82;95.55;100726.95;1672698;84;20981;-94
2022/08/06 02:02:14;;;;;;;15.55;14.15;;;;;;;18.77;95.47;100727.88;1672595;84;20981;-92
2022/08/06 02:04:41;;;;;;;18.02;14.87;;;;;;;18.75;95.69;100726.31;1672464;84;21188;-93
2022/08/06 02:07:09;;;;;;;19.30;17.48;;;;;;;18.74;95.89;100731.27;1670736;84;20899;-93
2022/08/06 02:09:36;;;;;;;17.25;15.15;;;;;;;18.71;96.00;100725.75;1672461;86;20922;-92
2022/08/06 02:12:08;;;;;;;17.35;15.60;;;;;;;18.70;95.92;100731.20;1648113;85;20937;-93
2022/08/06 02:14:57;;;;;;;16.57;14.98;;;;;;;18.68;96.13;100728.70;1675439;85;20871;-92
2022/08/06 02:17:28;;;;;;;15.80;14.18;;;;;;;18.68;95.98;100727.88;1645149;86;21157;-94
2022/08/06 02:19:55;;;;;;;17.45;15.83;;;;;;;18.66;95.69;100724.52;1675892;85;20902;-93
2022/08/06 02:22:21;;;;;;;17.17;15.10;;;;;;;18.63;95.51;100732.25;1675691;84;20934;-93
2022/08/06 02:24:49;;;;;;;16.17;14.63;;;;;;;18.61;95.39;100733.74;1643944;84;21045;-92
2022/08/06 02:27:16;;;;;;;16.90;14.68;;;;;;;18.59;95.18;100733.55;1670796;84;21368;-94
2022/08/06 02:29:43;;;;;;;16.62;14.87;;;;;;;18.56;95.17;100735.13;1646936;84;21137;-94
2022/08/06 02:32:11;;;;;;;18.02;15.63;;;;;;;18.55;95.38;100740.11;1670754;84;20954;-93
2022/08/06 02:34:38;;;;;;;20.97;14.23;;;;;;;18.53;95.45;100740.24;1671087;86;20903;-95
2022/08/06 02:37:11;;;;;;;17.67;15.80;;;;;;;18.52;95.44;100743.03;1671065;85;20910;-92
2022/08/06 02:39:46;;;;;;;17.73;15.60;;;;;;;18.49;95.47;100737.52;1671044;86;20855;-93
2022/08/06 02:42:33;;;;;;;19.40;14.50;;;;;;;18.49;95.52;100744.65;1676035;84;21140;-91
2022/08/06 02:45:09;;;;;;;17.37;14.78;;;;;;;18.48;95.47;100746.48;1666404;85;20950;-93
2022/08/06 02:47:44;;;;;;;17.62;14.47;;;;;;;18.46;95.55;100745.77;1670765;84;21432;-93
2022/08/06 02:50:13;;;;;;;17.73;15.85;;;;;;;18.46;95.72;100746.27;1675566;85;21794;-94
2022/08/06 02:52:51;;;;;;;16.48;14.95;;;;;;;18.46;95.83;100743.61;1671601;84;20958;-94
2022/08/06 02:55:19;;;;;;;16.40;14.80;;;;;;;18.45;95.82;100738.77;1672309;84;21213;-93
2022/08/06 02:57:56;;;;;;;17.82;15.50;;;;;;;18.46;95.77;100736.97;1671558;86;20859;-93
2022/08/06 03:00:23;;;;;;;16.20;14.60;;;;;;;18.45;95.73;100738.77;1672096;84;20930;-93
2022/08/06 03:02:53;;;;;;;16.67;15.05;;;;;;;18.48;95.75;100740.33;1643865;86;21022;-93
2022/08/06 03:05:20;;;;;;;16.15;14.47;;;;;;;18.48;95.80;100739.00;1670828;84;20985;-92
2022/08/06 03:09:28;;;;;;;17.27;15.78;;;;;;;18.55;96.28;100732.97;1798905;79;22281;-93
2022/08/06 03:11:54;;;;;;;17.30;15.63;;;;;;;18.54;96.39;100741.08;1759513;80;21015;-92
2022/08/06 03:14:21;;;;;;;17.50;15.80;;;;;;;18.58;96.51;100736.66;1759456;80;21335;-92
2022/08/06 03:16:47;;;;;;;20.68;16.57;;;;;;;18.62;96.52;100742.55;1759442;81;20955;-92
2022/08/06 03:19:16;;;;;;;17.23;15.53;;;;;;;18.67;96.49;100742.12;1759397;80;21007;-92
2022/08/06 03:21:42;;;;;;;17.50;15.80;;;;;;;18.70;96.48;100744.02;1715846;81;20931;-92
2022/08/06 03:24:09;;;;;;;18.40;16.48;;;;;;;18.74;96.51;100745.41;1759218;81;20940;-91
2022/08/06 03:26:36;;;;;;;19.10;16.48;;;;;;;18.81;96.46;100749.70;1759399;81;21878;-92
2022/08/06 03:29:03;;;;;;;16.67;14.13;;;;;;;18.87;96.40;100749.61;1759179;80;20908;-93
2022/08/06 03:31:31;;;;;;;17.62;15.78;;;;;;;18.93;96.33;100764.98;1760035;81;20861;-92
2022/08/06 03:33:57;;;;;;;16.55;14.78;;;;;;;18.98;96.21;100759.57;1759816;80;21050;-92
2022/08/06 03:36:24;;;;;;;16.87;13.70;;;;;;;19.06;96.15;100757.55;1759470;80;20971;-91
2022/08/06 03:38:56;;;;;;;16.10;14.60;;;;;;;19.12;96.05;100759.63;1759356;81;21150;-92
2022/08/06 03:41:24;;;;;;;15.00;13.53;;;;;;;19.19;96.16;100758.06;1759104;80;20874;-92
2022/08/06 03:43:51;;;;;;;15.93;14.45;;;;;;;19.29;96.22;100766.50;1759356;80;20841;-92
2022/08/06 03:46:29;;;;;;;14.70;13.35;;;;;;;19.38;96.17;100761.63;1759496;80;20897;-92
2022/08/06 03:48:59;;;;;;;17.57;15.93;;;;;;;19.48;96.26;100765.10;1759213;80;20979;-92
2022/08/06 03:51:27;;;;;;;18.85;16.90;;;;;;;19.59;96.25;100762.25;1759464;81;21216;-92
2022/08/06 03:53:53;;;;;;;16.57;14.53;;;;;;;19.69;96.20;100760.89;1759599;80;20918;-93
2022/08/06 03:56:23;;;;;;;16.25;14.75;;;;;;;19.81;96.31;100763.72;1760117;80;20876;-93
2022/08/06 03:58:51;;;;;;;15.72;14.00;;;;;;;19.96;96.35;100759.20;1759217;80;20892;-92
2022/08/06 04:01:21;;;;;;;16.15;14.60;;;;;;;20.10;96.38;100756.05;1759750;78;20955;-92
2022/08/06 04:03:48;;;;;;;12.55;11.38;;;;;;;20.24;96.11;100748.85;1740738;81;21433;-92
2022/08/06 04:06:14;;;;;;;13.32;12.13;;;;;;;20.41;95.38;100747.19;1759287;80;21016;-91
2022/08/06 04:08:41;;;;;;;11.60;10.70;;;;;;;20.56;94.28;100744.80;1712589;82;21367;-93
2022/08/06 04:11:08;;;;;;;12.07;10.98;;;;;;;20.74;93.16;100744.80;1735537;82;20936;-92
2022/08/06 04:13:34;;;;;;;14.10;10.70;;;;;;;20.90;91.75;100739.60;1746311;80;20975;-94
2022/08/06 04:16:01;;;;;;;12.58;11.28;;;;;;;21.06;90.52;100738.86;1746441;81;21183;-92
2022/08/06 04:18:33;;;;;;;10.08;9.38;;;;;;;21.23;89.25;100737.61;1746544;81;20924;-93
2022/08/06 04:21:04;;;;;;;11.40;10.40;;;;;;;21.39;87.39;100738.19;1745790;82;20917;-93
2022/08/06 04:23:31;;;;;;;10.82;9.88;;;;;;;21.56;86.27;100741.30;1745852;81;21363;-91
2022/08/06 04:26:02;;;;;;;11.18;10.18;;;;;;;21.75;85.01;100746.06;1745969;81;20925;-93
2022/08/06 04:28:30;;;;;;;10.88;9.85;;;;;;;21.90;83.64;100741.27;1745883;81;22008;-94
2022/08/06 04:30:58;;;;;;;10.28;9.48;;;;;;;22.11;82.78;100750.14;1745915;81;20881;-95
2022/08/06 04:33:25;;;;;;;10.23;9.38;;;;;;;22.32;81.41;100751.05;1746337;79;21442;-93
2022/08/06 04:35:52;;;;;;;10.20;9.33;;;;;;;22.59;80.35;100743.72;1745949;82;20920;-93
2022/08/06 04:38:22;;;;;;;9.98;9.08;;;;;;;22.97;79.24;100741.34;1746298;81;20842;-95
2022/08/06 04:40:50;;;;;;;10.38;9.15;;;;;;;23.49;77.14;100747.55;1746145;81;21913;-92
2022/08/06 04:43:16;;;;;;;9.75;8.73;;;;;;;23.99;74.97;100746.86;1745897;81;20925;-94
2022/08/06 04:45:43;;;;;;;9.28;8.60;;;;;;;24.48;73.07;100745.67;1746147;81;21316;-94
2022/08/06 04:48:11;;;;;;;10.60;9.68;;;;;;;24.88;70.37;100749.88;1745912;79;20853;-95
2022/08/06 04:50:38;;;;;;;12.18;10.40;;;;;;;25.15;68.85;100751.09;1745871;81;20940;-94
2022/08/06 04:53:10;;;;;;;14.43;11.75;;;;;;;25.27;67.20;100752.83;1745993;81;21156;-93
2022/08/06 04:55:40;;;;;;;11.83;10.82;;;;;;;25.32;66.46;100750.93;1746103;81;21382;-94
2022/08/06 04:58:09;;;;;;;13.75;12.35;;;;;;;25.34;65.71;100756.95;1746140;82;20932;-95
2022/08/06 05:00:39;;;;;;;15.20;13.72;;;;;;;25.41;65.35;100760.55;1746075;80;20889;-94
2022/08/06 05:03:06;;;;;;;14.23;12.78;;;;;;;25.51;64.25;100759.77;1746295;81;20908;-95
2022/08/06 05:05:39;;;;;;;16.27;14.70;;;;;;;25.62;62.69;100757.95;1746158;82;21076;-94
2022/08/06 05:08:06;;;;;;;15.08;13.50;;;;;;;25.71;62.48;100760.54;1748503;80;20983;-93
2022/08/06 05:10:48;;;;;;;14.98;13.45;;;;;;;25.90;62.54;100760.47;1759452;81;21394;-94
2022/08/06 05:13:15;;;;;;;15.80;14.15;;;;;;;26.21;61.77;100762.87;1759462;81;20995;-95
2022/08/06 05:15:43;;;;;;;16.07;14.47;;;;;;;26.62;60.60;100759.58;1759458;80;20924;-94
2022/08/06 05:18:18;;;;;;;15.30;13.58;;;;;;;27.03;59.49;100750.23;1759307;80;21161;-94
2022/08/06 05:20:49;;;;;;;14.90;13.35;;;;;;;27.49;58.14;100756.44;1759101;81;21007;-95
2022/08/06 05:23:26;;;;;;;15.35;13.75;;;;;;;27.97;56.71;100753.42;1759114;81;20936;-95
2022/08/06 05:25:53;;;;;;;14.35;12.80;;;;;;;28.42;55.59;100744.28;1759393;81;20924;-96
2022/08/06 05:28:20;;;;;;;14.80;13.40;;;;;;;28.88;54.35;100744.80;1759368;81;20876;-92
2022/08/06 05:30:49;;;;;;;13.88;12.53;;;;;;;29.29;53.52;100753.17;1759161;81;21748;-92
2022/08/06 05:33:33;;;;;;;14.13;12.82;;;;;;;29.66;52.03;100752.08;1759147;81;20955;-95
2022/08/06 05:36:06;;;;;;;13.43;12.10;;;;;;;29.98;50.03;100752.19;1759566;81;20927;-94
2022/08/06 05:38:35;;;;;;;13.18;11.88;;;;;;;30.23;49.19;100754.92;1760209;81;20972;-95
2022/08/06 05:41:10;;;;;;;19.95;12.88;;;;;;;30.42;49.38;100755.34;1759365;81;20916;-94
2022/08/06 05:43:39;;;;;;;13.05;11.85;;;;;;;30.70;48.63;100755.42;1759341;81;21117;-95
2022/08/06 05:46:10;;;;;;;15.13;13.43;;;;;;;30.98;48.03;100757.16;1760320;78;20948;-95
2022/08/06 05:48:45;;;;;;;17.82;13.38;;;;;;;31.22;48.02;100746.50;1760744;78;20932;-94
2022/08/06 05:51:25;;;;;;;13.53;12.07;;;;;;;31.48;47.40;100744.05;1760175;81;20885;-95
2022/08/06 05:53:55;;;;;;;12.25;11.28;;;;;;;31.79;46.92;100741.66;1760006;80;20924;-93
2022/08/06 05:56:27;;;;;;;10.32;9.28;;;;;;;32.10;45.99;100741.12;1758915;81;21253;-95
2022/08/06 05:58:59;;;;;;;8.93;8.03;;;;;;;32.42;44.96;100749.00;1759759;81;20853;-94
2022/08/06 06:01:26;;;;;;;9.83;8.83;;;;;;;32.58;41.94;100740.72;1759657;80;21425;-93
2022/08/06 06:03:56;;;;;;;8.30;7.62;;;;;;;32.43;42.72;100738.42;1759088;81;20935;-95
2022/08/06 06:06:22;;;;;;;8.35;7.65;;;;;;;32.41;43.24;100733.21;1758877;80;20864;-95
2022/08/06 06:08:50;;;;;;;9.15;8.23;;;;;;;32.55;43.27;100737.95;1758689;80;21240;-93
2022/08/06 06:11:17;;;;;;;8.70;7.87;;;;;;;32.79;43.14;100733.35;1741666;81;21456;-90
2022/08/06 06:13:43;;;;;;;8.75;7.75;;;;;;;33.10;43.14;100730.50;1758944;81;20944;-90
2022/08/06 06:16:21;;;;;;;9.18;8.15;;;;;;;33.32;42.48;100732.87;1758603;81;20928;-90
2022/08/06 06:19:08;;;;;;;8.68;7.90;;;;;;;33.43;42.59;100733.37;1758577;81;20924;-89
2022/08/06 06:21:58;;;;;;;9.00;8.20;;;;;;;33.61;41.81;100730.21;1759167;81;21118;-91
2022/08/06 06:24:39;;;;;;;13.38;7.20;;;;;;;33.83;40.21;100738.52;1758627;81;21030;-92
2022/08/06 06:27:19;;;;;;;8.23;7.53;;;;;;;33.98;40.65;100740.16;1758828;81;20932;-92
2022/08/06 06:30:00;;;;;;;8.95;8.05;;;;;;;34.18;39.23;100738.91;1758149;81;20975;-93
2022/08/06 06:32:47;;;;;;;8.93;7.40;;;;;;;34.25;40.40;100737.66;1758341;81;21409;-92
2022/08/06 06:35:35;;;;;;;7.55;6.95;;;;;;;34.41;40.03;100738.73;1758890;80;21133;-94
2022/08/06 06:38:26;;;;;;;8.55;7.60;;;;;;;34.57;38.95;100733.53;1758515;80;20920;-93
2022/08/06 06:41:04;;;;;;;8.45;7.75;;;;;;;34.67;39.46;100735.09;1758870;81;20889;-93
2022/08/06 06:43:43;;;;;;;8.35;7.50;;;;;;;34.85;38.47;100733.98;1759685;80;20944;-93
2022/08/06 06:46:38;;;;;;;8.28;7.55;;;;;;;34.95;38.57;100746.41;1759336;81;20849;-92
2022/08/06 06:49:34;;;;;;;8.30;7.67;;;;;;;34.92;37.36;100740.62;1758299;81;21127;-94
2022/08/06 06:52:12;;;;;;;8.55;7.80;;;;;;;34.63;37.61;100739.38;1758932;81;20884;-93
2022/08/06 06:54:44;;;;;;;8.55;7.80;;;;;;;34.44;38.25;100740.98;1755132;81;20943;-93
2022/08/06 06:57:12;;;;;;;12.85;9.08;;;;;;;34.49;38.80;100736.69;1759461;81;20897;-92
2022/08/06 06:59:42;;;;;;;8.08;7.47;;;;;;;34.60;39.26;100738.50;1758894;81;20975;-93
2022/08/06 07:02:15;;;;;;;8.20;7.42;;;;;;;34.68;38.30;100727.19;1759193;80;21199;-95
2022/08/06 07:04:41;;;;;;;9.73;8.28;;;;;;;34.66;38.44;100737.00;1757000;81;20889;-93
2022/08/06 07:07:08;;;;;;;7.97;7.22;;;;;;;34.60;38.18;100735.23;1758818;81;21457;-92
2022/08/06 07:09:35;;;;;;;9.78;8.45;;;;;;;34.58;38.38;100730.56;1758572;80;21057;-91
2022/08/06 07:12:03;;;;;;;8.03;7.33;;;;;;;34.62;38.39;100739.92;1758914;81;21370;-91
2022/08/06 07:14:32;;;;;;;8.08;7.30;;;;;;;34.78;38.46;100735.53;1759270;81;21212;-93
2022/08/06 07:16:59;;;;;;;9.68;8.38;;;;;;;35.04;38.15;100737.23;1759572;80;20880;-92
2022/08/06 07:19:26;;;;;;;10.10;9.15;;;;;;;35.31;37.90;100735.14;1759763;81;20941;-92
2022/08/06 07:21:53;;;;;;;7.83;7.10;;;;;;;35.48;38.51;100737.27;1759782;81;20936;-94
2022/08/06 07:24:23;;;;;;;7.37;6.70;;;;;;;35.58;38.08;100744.22;1760119;81;20905;-92
2022/08/06 07:26:50;;;;;;;10.88;7.05;;;;;;;35.61;36.47;100746.42;1759957;81;21129;-91
2022/08/06 07:29:16;;;;;;;8.63;7.80;;;;;;;35.56;36.62;100740.91;1759728;81;21397;-93
2022/08/06 07:31:43;;;;;;;14.40;7.15;;;;;;;35.61;36.50;100746.42;1759669;81;20856;-91
2022/08/06 07:34:10;;;;;;;8.05;7.22;;;;;;;35.73;36.01;100740.87;1759574;81;20908;-91
2022/08/06 07:36:40;;;;;;;8.18;7.40;;;;;;;35.76;36.01;100741.70;1760208;80;20975;-92
2022/08/06 07:39:11;;;;;;;8.28;7.58;;;;;;;35.78;35.65;100732.72;1759771;81;21130;-90
2022/08/06 07:41:38;;;;;;;8.48;7.70;;;;;;;35.73;35.93;100734.56;1759723;81;20967;-93
2022/08/06 07:44:05;;;;;;;8.95;7.05;;;;;;;35.76;36.13;100739.52;1759350;81;21003;-92
2022/08/06 07:46:41;;;;;;;10.03;6.97;;;;;;;35.83;36.24;100733.31;1759625;81;20920;-91
2022/08/06 07:49:08;;;;;;;9.38;7.53;;;;;;;35.90;35.77;100736.11;1759752;80;20900;-91
2022/08/06 07:51:38;;;;;;;10.18;8.88;;;;;;;35.98;35.74;100727.19;1759825;81;21255;-91
2022/08/06 07:54:07;;;;;;;8.48;7.67;;;;;;;36.05;35.74;100731.34;1760016;81;21003;-94
2022/08/06 07:56:36;;;;;;;8.45;7.75;;;;;;;36.16;36.01;100729.56;1760081;81;20915;-95
2022/08/06 07:59:04;;;;;;;7.90;7.20;;;;;;;36.41;36.35;100730.30;1760014;81;20928;-95
2022/08/06 08:01:32;;;;;;;8.85;7.70;;;;;;;36.68;35.92;100737.62;1760557;80;21283;-93
2022/08/06 08:06:46;;;;;;;8.75;7.17;;;;;;;36.95;35.16;100741.59;1760393;81;21452;-94
2022/08/06 08:09:15;;;;;;;6.62;6.03;;;;;;;37.02;34.26;100732.64;1760138;80;20952;-93
2022/08/06 08:11:43;;;;;;;7.47;6.78;;;;;;;37.26;35.04;100730.84;1759996;81;20909;-92
2022/08/06 08:14:12;;;;;;;7.25;6.60;;;;;;;37.50;34.49;100733.38;1760225;81;20919;-94
2022/08/06 08:16:43;;;;;;;7.78;7.05;;;;;;;37.70;34.21;100728.53;1760078;81;21163;-94
2022/08/06 08:19:32;;;;;;;6.60;6.00;;;;;;;37.89;33.47;100733.52;1759947;80;20924;-94
2022/08/06 08:22:13;;;;;;;6.25;5.75;;;;;;;38.10;33.24;100732.44;1759792;80;20940;-94
2022/08/06 08:24:39;;;;;;;10.93;6.15;;;;;;;38.29;32.97;100737.39;1759979;81;20936;-95
2022/08/06 08:27:10;;;;;;;7.65;6.80;;;;;;;38.33;32.03;100732.98;1760004;80;20990;-91
2022/08/06 08:29:39;;;;;;;9.95;6.25;;;;;;;38.30;32.74;100723.40;1759848;81;21206;-92
2022/08/06 08:32:07;;;;;;;10.25;6.62;;;;;;;38.34;32.66;100722.31;1759773;81;20936;-93
2022/08/06 08:34:37;;;;;;;8.25;6.95;;;;;;;38.39;31.63;100722.85;1760169;81;20884;-94
2022/08/06 08:37:06;;;;;;;7.22;6.53;;;;;;;38.31;31.87;100724.21;1760268;81;21011;-94
2022/08/06 08:39:33;;;;;;;7.03;6.35;;;;;;;38.17;32.41;100721.21;1761187;78;20978;-92
2022/08/06 08:42:08;;;;;;;7.47;6.45;;;;;;;38.19;32.35;100727.24;1761469;78;21076;-93
2022/08/06 08:44:35;;;;;;;7.65;6.15;;;;;;;38.21;32.21;100726.98;1735935;81;20963;-93
2022/08/06 08:47:03;;;;;;;7.72;6.97;;;;;;;38.18;32.39;100729.72;1760771;81;20979;-93
2022/08/06 08:49:41;;;;;;;7.62;6.87;;;;;;;38.08;32.33;100733.27;1760074;81;20860;-93
2022/08/06 08:52:11;;;;;;;6.60;6.10;;;;;;;37.98;32.62;100725.03;1759119;81;21394;-91
2022/08/06 08:54:43;;;;;;;6.83;6.12;;;;;;;37.98;33.36;100726.95;1759176;80;21207;-91
2022/08/06 08:57:11;;;;;;;7.62;6.62;;;;;;;37.98;33.68;100725.58;1759212;80;21438;-92
2022/08/06 08:59:37;;;;;;;8.98;7.97;;;;;;;37.94;33.40;100732.95;1759398;81;20924;-90
2022/08/06 09:02:04;;;;;;;11.78;10.60;;;;;;;37.82;32.48;100724.72;1759661;81;20864;-92
2022/08/06 09:04:32;;;;;;;13.25;11.00;;;;;;;37.61;32.46;100717.84;1759407;81;20916;-91
2022/08/06 09:06:58;;;;;;;8.00;7.05;;;;;;;37.43;33.87;100730.08;1759501;81;21423;-92
2022/08/06 09:09:25;;;;;;;8.48;7.70;;;;;;;37.36;33.57;100733.62;1759376;81;21030;-93
2022/08/06 09:11:52;;;;;;;7.47;6.87;;;;;;;37.40;33.33;100730.63;1742316;81;20849;-93
2022/08/06 09:14:19;;;;;;;11.00;6.62;;;;;;;37.51;32.65;100735.04;1759118;81;21007;-95
2022/08/06 09:16:46;;;;;;;7.60;6.58;;;;;;;37.40;32.24;100739.36;1759003;81;20983;-95
2022/08/06 09:19:13;;;;;;;8.00;7.20;;;;;;;37.30;32.34;100744.27;1758816;80;21195;-92
2022/08/06 09:21:39;;;;;;;8.53;7.72;;;;;;;37.20;32.69;100735.48;1759291;81;20987;-92
2022/08/06 09:24:06;;;;;;;7.08;6.37;;;;;;;37.21;33.50;100736.30;1758851;81;21015;-91
2022/08/06 09:26:33;;;;;;;10.25;7.08;;;;;;;37.33;33.22;100734.98;1758703;81;20920;-91
2022/08/06 09:29:00;;;;;;;8.50;7.75;;;;;;;37.52;33.34;100735.86;1741675;81;20888;-93
2022/08/06 09:31:26;;;;;;;9.23;7.00;;;;;;;37.74;32.91;100731.56;1758785;81;21174;-93
2022/08/06 09:34:03;;;;;;;6.87;6.28;;;;;;;37.95;33.23;100732.40;1758658;81;21417;-91
2022/08/06 09:36:44;;;;;;;7.33;6.72;;;;;;;38.13;33.35;100731.91;1758994;81;20888;-93
2022/08/06 09:39:10;;;;;;;6.83;6.22;;;;;;;38.35;33.15;100735.74;1758933;80;20900;-92
2022/08/06 09:41:49;;;;;;;7.47;6.80;;;;;;;38.51;32.26;100736.58;1758876;81;20892;-92
2022/08/06 09:44:15;;;;;;;8.65;6.62;;;;;;;38.61;32.16;100735.73;1759026;81;23129;-93
2022/08/06 09:46:47;;;;;;;7.87;6.70;;;;;;;38.76;32.00;100737.63;1758815;81;20989;-92
2022/08/06 09:49:15;;;;;;;7.12;6.10;;;;;;;38.89;33.07;100726.07;1759215;81;20884;-91
2022/08/06 09:51:42;;;;;;;8.13;6.33;;;;;;;39.12;32.23;100732.86;1758675;81;20904;-89
2022/08/06 09:54:12;;;;;;;7.28;6.58;;;;;;;39.25;31.85;100742.42;1758877;80;20908;-92
2022/08/06 09:56:39;;;;;;;6.08;5.72;;;;;;;39.37;31.43;100733.84;1759424;80;21750;-91
2022/08/06 09:59:07;;;;;;;9.23;6.28;;;;;;;39.39;30.29;100738.53;1758762;81;20924;-93
2022/08/06 10:01:41;;;;;;;7.70;7.00;;;;;;;39.36;30.74;100742.64;1759112;81;20884;-92
2022/08/06 10:04:16;;;;;;;10.80;6.80;;;;;;;39.43;31.57;100740.17;1758305;81;20948;-92
2022/08/06 10:06:58;;;;;;;7.78;6.35;;;;;;;39.51;32.12;100732.70;1758036;81;20884;-93
2022/08/06 10:09:26;;;;;;;7.50;5.92;;;;;;;39.63;31.20;100733.19;1758703;81;21504;-93
2022/08/06 10:11:53;;;;;;;27.52;25.27;;;;;;;39.72;30.54;100734.22;1759125;80;20968;-91
2022/08/06 10:14:28;;;;;;;9.03;7.97;;;;;;;39.72;29.77;100720.49;1759024;81;20959;-93
2022/08/06 10:17:09;;;;;;;13.62;10.40;;;;;;;39.77;29.98;100723.19;1759069;81;20995;-92
2022/08/06 10:19:38;;;;;;;7.90;6.83;;;;;;;39.81;30.41;100719.34;1758985;81;20964;-91
2022/08/06 10:22:16;;;;;;;8.28;5.65;;;;;;;39.89;30.09;100722.89;1758450;80;21940;-93
2022/08/06 10:24:48;;;;;;;8.13;6.10;;;;;;;39.95;29.62;100718.97;1758795;81;20904;-91
2022/08/06 10:27:23;;;;;;;7.50;5.20;;;;;;;39.86;29.79;100719.32;1759665;81;20936;-92
2022/08/06 10:29:53;;;;;;;18.35;16.57;;;;;;;39.87;30.12;100728.41;1758983;81;20896;-92
2022/08/06 10:32:45;;;;;;;9.58;8.15;;;;;;;39.92;30.71;100722.30;1757710;81;21383;-91
2022/08/06 10:35:14;;;;;;;8.73;7.70;;;;;;;39.92;30.58;100726.42;1758714;81;21202;-92
2022/08/06 10:37:46;;;;;;;9.05;6.72;;;;;;;39.89;30.81;100720.14;1758813;81;20857;-91
2022/08/06 10:40:14;;;;;;;5.77;5.27;;;;;;;39.84;31.04;100728.95;1742604;81;20979;-94
2022/08/06 10:42:46;;;;;;;6.28;5.67;;;;;;;39.72;29.29;100728.73;1759777;81;20971;-94
2022/08/06 10:45:15;;;;;;;8.15;6.37;;;;;;;39.63;29.77;100725.52;1759582;81;20896;-92
2022/08/06 10:47:44;;;;;;;9.08;6.37;;;;;;;39.59;30.65;100726.62;1742806;81;21150;-91
2022/08/06 10:50:15;;;;;;;7.62;6.58;;;;;;;39.53;30.95;100735.98;1759520;81;20932;-91
2022/08/06 10:52:43;;;;;;;8.05;6.45;;;;;;;39.41;30.69;100734.15;1723076;80;20939;-91
2022/08/06 10:55:13;;;;;;;7.85;6.12;;;;;;;39.33;31.10;100728.65;1719671;81;20888;-92
2022/08/06 10:57:43;;;;;;;7.70;6.25;;;;;;;39.29;31.42;100730.34;1685701;85;20920;-90
2022/08/06 11:00:11;;;;;;;8.55;7.53;;;;;;;39.27;30.24;100726.50;1720123;82;21268;-91
2022/08/06 11:02:49;;;;;;;7.60;6.72;;;;;;;39.21;30.74;100724.06;1684972;84;20952;-92
2022/08/06 11:05:18;;;;;;;7.58;6.47;;;;;;;39.22;31.21;100724.31;1706005;82;20999;-91
2022/08/06 11:08:25;;;;;;;6.42;5.90;;;;;;;39.29;31.64;100722.11;1720451;82;20904;-93
2022/08/06 11:11:23;;;;;;;6.67;6.08;;;;;;;39.41;31.53;100729.47;1720375;82;21346;-91
2022/08/06 11:14:06;;;;;;;6.45;5.72;;;;;;;39.37;31.08;100724.24;1720804;83;20853;-91
2022/08/06 11:16:33;;;;;;;9.45;6.30;;;;;;;39.30;31.17;100721.80;1720813;82;21186;-91
2022/08/06 11:19:07;;;;;;;8.23;6.75;;;;;;;39.25;31.00;100719.66;1685647;84;21382;-89
2022/08/06 11:21:46;;;;;;;10.20;6.50;;;;;;;39.22;31.48;100718.83;1720372;82;21014;-91
2022/08/06 11:24:15;;;;;;;9.05;6.50;;;;;;;39.21;31.40;100715.27;1685669;84;20924;-91
2022/08/06 11:26:44;;;;;;;10.10;8.10;;;;;;;39.12;31.74;100723.27;1720513;83;21366;-92
2022/08/06 11:29:15;;;;;;;10.53;7.58;;;;;;;38.99;31.68;100729.34;1685758;84;21342;-93
2022/08/06 11:31:48;;;;;;;6.30;5.67;;;;;;;38.82;31.58;100719.22;1722029;80;20912;-91
2022/08/06 11:34:19;;;;;;;7.53;6.35;;;;;;;38.67;32.13;100721.48;1723223;80;20979;-90
2022/08/06 11:36:55;;;;;;;7.58;6.42;;;;;;;38.58;31.69;100718.48;1723095;80;20994;-90